Thayne, WY

6:20 PM MST on December 17, 2014 (GMT -0700)
One Mile South of | Change Station
CLOSE
Current Station
Personal Weather Station
Location: Alpine, WY
Elevation: 5650 ft
Nearby Weather Stations

Elev 5650 ft 43.16 °N, 111.03 °W | Updated 0 second ago

Mostly Cloudy
Mostly Cloudy
26.3 °F
Feels Like 26 °F
N
2.0
Wind Variable Wind from South
Gusts 2.0 mph

Today
High -- | Low -- °F
--% Chance of Precip.
Yesterday
High -- | Low -- °F
Precip. -- in
7:49 AM 4:50 PM
Waning Crescent, 18% visible
Pressure 29.97 in
Visibility 10.0 miles
Clouds Overcast 4800 ft
Windchill 26 °F
Dew Point 22 °F
Humidity 85%
Rainfall 0.04 in
Snow Depth Not available.
UV 0.0 out of 12
Pollen .10 out of 12
Air Quality Not available.
Flu Activity Not available.
METAR KAFO 180115Z AUTO 00000KT 10SM OVC048 M06/M07 A2997 RMK AO2

More Conditions Fewer Conditions

Pressure 29.97 in
Visibility 10.0 miles
Clouds Overcast 4800 ft
Windchill 26 °F
Dew Point 22 °F
Humidity 85%
Rainfall 0.04 in
Snow Depth Not available.
UV 0.0 out of 12
Pollen .10 out of 12
Air Quality Not available.
Flu Activity Not available.
METAR KAFO 180115Z AUTO 00000KT 10SM OVC048 M06/M07 A2997 RMK AO2

More Conditions Fewer Conditions

10-Day Weather Forecast

Almanac

Astronomy

Dec. 17, 2014 Rise Set
Actual Time
Civil Twilight
Nautical Twilight
Astronomical Twilight
Moon
Length of Visible Light
Length of Day
Tomorrow will be .
, % of the Moon is Illuminated

Today's Extremes

State Highs State Lows

Community

WunderPhotos

Upload Photos

1,778,847 photos uploaded!

WunderBlogs® & News

Nearby

Air Quality

  Air Quality AQ Index Pollutant
Not available.

Snow Depth

Station Depth Elevation

Earthquake Activity

City Distance Mag. Time & Date
Minimum magnitude displayed is 2.5.

Coastal Water Temperatures

Place Temperature

Nearby Weather Stations